Time;durP1;ratioP1;P1;durP2;ratioP2;P2;SDS_P1;SDS_P2;PMS_P1;PMS_P2;Temp;Humidity;BMP_temperature;BMP_pressure;BME280_temperature;BME280_humidity;BME280_pressure;Samples;Min_cycle;Max_cycle;Signal;HPM_P1;HPM_P2
2023/07/10 00:01:15;;;;;;;11.18;3.80;;;15.20;99.90;;;;;;4970194;28;20031;-79
2023/07/10 00:03:41;;;;;;;17.23;3.83;;;15.20;99.90;;;;;;4970346;28;20114;-79
2023/07/10 00:06:14;;;;;;;12.60;3.60;;;15.20;99.90;;;;;;4973544;28;20034;-79
2023/07/10 00:08:40;;;;;;;11.13;3.25;;;15.20;99.90;;;;;;4973368;28;20035;-79
2023/07/10 00:11:22;;;;;;;14.90;3.42;;;15.10;99.90;;;;;;4973825;28;20023;-79
2023/07/10 00:13:48;;;;;;;11.20;3.13;;;15.00;99.90;;;;;;4973671;28;20038;-80
2023/07/10 00:16:16;;;;;;;7.95;2.97;;;14.90;99.90;;;;;;4973562;28;20027;-80
2023/07/10 00:18:42;;;;;;;21.67;3.42;;;14.90;99.90;;;;;;4973794;28;20545;-79
2023/07/10 00:21:08;;;;;;;13.77;3.80;;;14.90;99.90;;;;;;4973472;28;20109;-79
2023/07/10 00:23:34;;;;;;;13.55;3.42;;;14.90;99.90;;;;;;4973430;28;20015;-79
2023/07/10 00:25:59;;;;;;;13.68;3.63;;;14.80;99.90;;;;;;4973902;28;20054;-79
2023/07/10 00:28:25;;;;;;;10.48;3.08;;;14.80;99.90;;;;;;4973594;28;20031;-79
2023/07/10 00:30:51;;;;;;;18.67;3.20;;;14.70;99.90;;;;;;4973517;28;20097;-79
2023/07/10 00:33:18;;;;;;;15.00;3.38;;;14.70;99.90;;;;;;4973506;28;20019;-79
2023/07/10 00:35:45;;;;;;;8.65;2.53;;;14.60;99.90;;;;;;4973366;28;20062;-79
2023/07/10 00:38:19;;;;;;;10.93;2.83;;;14.50;99.90;;;;;;4973274;28;20019;-79
2023/07/10 00:40:46;;;;;;;10.20;2.55;;;14.50;99.90;;;;;;4972998;28;20499;-79
2023/07/10 00:43:27;;;;;;;9.25;2.78;;;14.40;99.90;;;;;;4972780;28;20031;-79
2023/07/10 00:45:53;;;;;;;10.55;3.03;;;14.30;99.90;;;;;;4972786;28;20027;-79
2023/07/10 00:48:36;;;;;;;9.32;2.88;;;14.30;99.90;;;;;;4972424;28;20050;-79
2023/07/10 00:51:11;;;;;;;8.63;2.65;;;14.20;99.90;;;;;;4973210;28;20031;-79
2023/07/10 00:53:41;;;;;;;9.27;2.47;;;14.20;99.90;;;;;;4972965;28;20035;-79
2023/07/10 00:56:14;;;;;;;9.45;3.38;;;14.10;99.90;;;;;;4972781;28;20023;-79
2023/07/10 00:58:44;;;;;;;6.20;2.58;;;14.10;99.90;;;;;;4979398;28;20158;-79
2023/07/10 01:01:16;;;;;;;17.17;3.00;;;14.00;99.90;;;;;;4972268;28;20030;-79
2023/07/10 01:03:43;;;;;;;9.50;2.72;;;13.90;99.90;;;;;;4972369;28;20034;-79
2023/07/10 01:06:30;;;;;;;8.32;3.30;;;13.90;99.90;;;;;;4972853;28;20023;-79
2023/07/10 01:09:02;;;;;;;7.93;2.67;;;13.80;99.90;;;;;;4967023;28;20179;-79
2023/07/10 01:11:28;;;;;;;12.38;3.75;;;13.80;99.90;;;;;;4966613;28;20015;-79
2023/07/10 01:13:56;;;;;;;10.40;3.20;;;13.80;99.90;;;;;;4972654;28;20501;-79
2023/07/10 01:16:23;;;;;;;9.82;3.20;;;13.70;99.90;;;;;;4971992;28;20533;-79
2023/07/10 01:18:49;;;;;;;8.77;2.92;;;13.70;99.90;;;;;;4972306;28;20023;-79
2023/07/10 01:21:27;;;;;;;6.75;2.88;;;13.60;99.90;;;;;;4971806;28;20034;-79
2023/07/10 01:23:54;;;;;;;8.98;3.28;;;13.60;99.90;;;;;;4972490;28;20062;-80
2023/07/10 01:26:19;;;;;;;8.80;2.83;;;13.50;99.90;;;;;;4987315;23;20195;-83
2023/07/10 01:28:46;;;;;;;12.75;3.00;;;13.40;99.90;;;;;;4971711;28;20101;-83
2023/07/10 01:31:14;;;;;;;10.55;2.83;;;13.40;99.90;;;;;;4972109;28;20019;-83
2023/07/10 01:33:50;;;;;;;14.90;3.03;;;13.40;99.90;;;;;;4972081;28;20031;-83
2023/07/10 01:36:20;;;;;;;13.98;3.20;;;13.30;99.90;;;;;;4970576;28;20454;-83
2023/07/10 01:38:49;;;;;;;8.50;2.70;;;13.40;99.90;;;;;;4972236;28;20011;-83
2023/07/10 01:41:34;;;;;;;15.45;2.92;;;13.20;99.90;;;;;;4971106;28;20723;-83
2023/07/10 01:44:00;;;;;;;5.93;2.17;;;13.20;99.90;;;;;;4971472;28;20069;-83
2023/07/10 01:46:27;;;;;;;6.45;2.70;;;13.10;99.90;;;;;;4972059;28;20055;-83
2023/07/10 01:49:00;;;;;;;11.25;2.58;;;13.00;99.90;;;;;;4971865;28;20076;-83
2023/07/10 01:51:26;;;;;;;10.45;3.25;;;13.00;99.90;;;;;;4965811;28;20030;-83
2023/07/10 01:53:51;;;;;;;8.70;2.80;;;13.00;99.90;;;;;;4971688;28;20023;-84
2023/07/10 01:56:20;;;;;;;7.50;2.25;;;13.00;99.90;;;;;;4971472;28;20161;-83
2023/07/10 01:58:46;;;;;;;13.55;3.20;;;12.90;99.90;;;;;;4971666;28;20018;-82
2023/07/10 02:01:11;;;;;;;13.90;3.05;;;12.80;99.90;;;;;;4971472;28;20379;-83
2023/07/10 02:03:37;;;;;;;9.65;3.03;;;12.80;99.90;;;;;;4971320;28;20023;-83
2023/07/10 02:06:03;;;;;;;5.75;2.45;;;12.70;99.90;;;;;;4971569;28;20085;-83
2023/07/10 02:08:29;;;;;;;10.63;2.92;;;12.70;99.90;;;;;;4971264;28;20073;-83
2023/07/10 02:10:55;;;;;;;6.13;2.50;;;12.70;99.90;;;;;;4971863;28;20801;-84
2023/07/10 02:13:21;;;;;;;6.65;2.33;;;12.60;99.90;;;;;;4971551;28;20033;-82
2023/07/10 02:15:46;;;;;;;11.35;2.97;;;12.50;99.90;;;;;;4971473;28;20382;-82
2023/07/10 02:18:12;;;;;;;8.00;2.38;;;12.50;99.90;;;;;;4954029;28;20378;-82
2023/07/10 02:20:39;;;;;;;7.65;2.22;;;12.50;99.90;;;;;;4971536;28;20033;-82
2023/07/10 02:23:04;;;;;;;5.97;2.33;;;12.40;99.90;;;;;;4971377;28;20660;-82
2023/07/10 02:25:30;;;;;;;5.65;2.03;;;12.40;99.90;;;;;;4970985;28;20038;-82
2023/07/10 02:27:56;;;;;;;15.68;3.25;;;12.30;99.90;;;;;;4983933;23;20471;-79
2023/07/10 02:30:22;;;;;;;9.13;2.53;;;12.20;99.90;;;;;;4970852;28;20023;-78
2023/07/10 02:32:48;;;;;;;3.70;1.92;;;12.20;99.90;;;;;;4971094;28;20640;-79
2023/07/10 02:35:14;;;;;;;11.00;3.17;;;12.10;99.90;;;;;;4971380;28;20038;-78
2023/07/10 02:37:40;;;;;;;8.90;2.30;;;12.10;99.90;;;;;;4971003;28;20023;-77
2023/07/10 02:40:07;;;;;;;4.65;2.40;;;12.10;99.90;;;;;;4971028;28;20023;-78
2023/07/10 02:42:34;;;;;;;9.10;2.80;;;12.10;99.90;;;;;;4970915;28;20386;-77
2023/07/10 02:44:59;;;;;;;6.32;2.35;;;12.00;99.90;;;;;;4971087;28;20025;-78
2023/07/10 02:47:25;;;;;;;8.30;2.20;;;12.00;99.90;;;;;;4970903;28;20113;-78
2023/07/10 02:49:51;;;;;;;5.22;1.70;;;12.00;99.90;;;;;;4970848;28;20066;-79
2023/07/10 02:52:16;;;;;;;4.80;2.40;;;11.90;99.90;;;;;;4971445;28;20066;-79
2023/07/10 02:54:42;;;;;;;7.90;2.40;;;11.90;99.90;;;;;;4953543;28;20023;-78
2023/07/10 02:57:07;;;;;;;4.57;2.10;;;11.80;99.90;;;;;;4970052;28;20034;-78
2023/07/10 02:59:33;;;;;;;7.88;2.75;;;11.70;99.90;;;;;;4953825;28;20094;-78
2023/07/10 03:02:00;;;;;;;6.30;2.08;;;11.70;99.90;;;;;;4970668;28;20396;-78
2023/07/10 03:04:25;;;;;;;5.65;2.05;;;11.70;99.90;;;;;;4953411;28;20533;-78
2023/07/10 03:06:51;;;;;;;20.40;4.15;;;11.70;99.90;;;;;;4970551;28;20015;-78
2023/07/10 03:09:17;;;;;;;13.05;3.30;;;11.60;99.90;;;;;;4970237;28;20035;-78
2023/07/10 03:11:43;;;;;;;5.25;2.53;;;11.60;99.90;;;;;;4970016;28;20034;-78
2023/07/10 03:14:09;;;;;;;7.55;2.13;;;11.60;99.90;;;;;;4970537;28;20403;-78
2023/07/10 03:16:34;;;;;;;11.95;3.00;;;11.60;99.90;;;;;;4970324;28;20102;-78
2023/07/10 03:19:00;;;;;;;5.70;2.53;;;11.60;99.90;;;;;;4970758;28;20019;-78
2023/07/10 03:21:26;;;;;;;8.20;2.88;;;11.60;99.90;;;;;;4970747;28;20436;-78
2023/07/10 03:23:52;;;;;;;16.65;2.80;;;11.60;99.90;;;;;;4970334;28;20022;-79
2023/07/10 03:26:18;;;;;;;8.35;2.95;;;11.50;99.90;;;;;;4985409;23;20086;-82
2023/07/10 03:28:44;;;;;;;7.88;2.47;;;11.50;99.90;;;;;;4969802;28;20042;-84
2023/07/10 03:31:09;;;;;;;10.95;2.85;;;11.50;99.90;;;;;;4970559;28;20391;-84
2023/07/10 03:33:35;;;;;;;7.15;2.55;;;11.40;99.90;;;;;;4970364;28;20475;-84
2023/07/10 03:36:05;;;;;;;10.55;2.92;;;11.40;99.90;;;;;;4968042;28;20052;-83
2023/07/10 03:38:32;;;;;;;9.55;2.53;;;11.50;99.90;;;;;;4971622;28;20137;-83
2023/07/10 03:40:58;;;;;;;15.07;2.85;;;11.40;99.90;;;;;;4972602;28;20038;-84
2023/07/10 03:43:26;;;;;;;12.75;2.42;;;11.30;99.90;;;;;;4973307;28;20042;-84
2023/07/10 03:45:52;;;;;;;14.82;2.72;;;11.30;99.90;;;;;;4969496;28;20006;-84
2023/07/10 03:48:17;;;;;;;15.35;3.83;;;11.30;99.90;;;;;;4974076;28;20117;-84
2023/07/10 03:50:43;;;;;;;9.18;2.50;;;11.20;99.90;;;;;;4974015;28;20098;-84
2023/07/10 03:53:09;;;;;;;18.45;2.97;;;11.30;99.90;;;;;;4974048;28;20364;-84
2023/07/10 03:55:36;;;;;;;11.15;2.83;;;11.20;99.90;;;;;;4975249;28;20046;-85
2023/07/10 03:58:21;;;;;;;9.70;2.33;;;11.20;99.90;;;;;;4977131;28;20022;-83
2023/07/10 04:00:47;;;;;;;11.00;2.65;;;11.20;99.90;;;;;;4973874;28;20030;-84
2023/07/10 04:03:13;;;;;;;14.27;3.40;;;11.10;99.90;;;;;;4973804;28;20046;-84
2023/07/10 04:05:38;;;;;;;7.72;2.50;;;11.10;99.90;;;;;;4956171;28;20030;-84
2023/07/10 04:08:04;;;;;;;10.70;2.63;;;11.10;99.90;;;;;;4973875;28;20061;-83
2023/07/10 04:10:30;;;;;;;7.57;2.40;;;11.10;99.90;;;;;;4974014;28;20117;-84
2023/07/10 04:12:55;;;;;;;8.95;3.50;;;11.10;99.90;;;;;;4973443;28;20103;-83
2023/07/10 04:15:21;;;;;;;19.05;3.63;;;11.10;99.90;;;;;;4973693;28;20035;-83
2023/07/10 04:17:46;;;;;;;20.70;2.95;;;11.10;99.90;;;;;;4973998;28;20030;-82
2023/07/10 04:20:12;;;;;;;11.65;3.17;;;11.10;99.90;;;;;;4973585;28;20034;-82
2023/07/10 04:22:38;;;;;;;15.02;2.90;;;11.10;99.90;;;;;;4973637;28;20428;-83
2023/07/10 04:25:05;;;;;;;13.00;2.80;;;11.20;99.90;;;;;;4973610;28;20027;-82
2023/07/10 04:27:34;;;;;;;11.88;3.13;;;11.10;99.90;;;;;;4972683;28;20022;-83
2023/07/10 04:30:00;;;;;;;10.75;3.47;;;11.10;99.90;;;;;;4973449;28;20039;-83
2023/07/10 04:32:25;;;;;;;14.35;3.42;;;11.10;99.90;;;;;;4973423;28;20034;-82
2023/07/10 04:34:51;;;;;;;11.57;2.65;;;11.10;99.90;;;;;;4973424;28;20035;-83
2023/07/10 04:37:17;;;;;;;13.30;2.70;;;11.10;99.90;;;;;;4972988;28;21269;-83
2023/07/10 04:39:42;;;;;;;14.85;3.33;;;11.10;99.90;;;;;;4973220;28;20037;-83
2023/07/10 04:42:08;;;;;;;8.98;2.95;;;11.20;99.90;;;;;;4972907;28;20104;-83
2023/07/10 04:44:34;;;;;;;8.25;2.72;;;11.20;99.90;;;;;;4972980;28;20499;-82
2023/07/10 04:46:59;;;;;;;10.55;2.63;;;11.20;99.90;;;;;;4973132;28;20038;-83
2023/07/10 04:49:25;;;;;;;12.45;3.25;;;11.20;99.90;;;;;;4972720;28;20027;-82
2023/07/10 04:51:51;;;;;;;11.52;3.53;;;11.30;99.90;;;;;;4972714;28;20023;-83
2023/07/10 04:54:16;;;;;;;10.70;3.45;;;11.30;99.90;;;;;;4972912;28;20030;-82
2023/07/10 04:56:42;;;;;;;9.40;3.58;;;11.40;99.90;;;;;;4972590;28;20029;-83
2023/07/10 04:59:08;;;;;;;21.08;3.65;;;11.40;99.90;;;;;;4972041;28;20069;-83
2023/07/10 05:01:34;;;;;;;15.05;3.40;;;11.60;99.90;;;;;;4954638;28;20037;-82
2023/07/10 05:04:01;;;;;;;12.77;4.13;;;11.60;99.90;;;;;;4972390;28;20059;-82
2023/07/10 05:06:27;;;;;;;8.02;2.80;;;11.60;99.90;;;;;;4972525;28;20042;-82
2023/07/10 05:08:58;;;;;;;11.05;3.10;;;11.60;99.90;;;;;;4955214;28;20038;-83
2023/07/10 05:11:25;;;;;;;;;;;11.70;99.90;;;;;;4973065;28;20138;-82
2023/07/10 05:13:51;;;;;;;12.63;3.45;;;11.70;99.90;;;;;;4972136;28;19906;-83
2023/07/10 05:16:16;;;;;;;11.88;3.10;;;11.80;99.90;;;;;;4972053;28;20030;-83
2023/07/10 05:18:42;;;;;;;11.80;3.40;;;11.90;99.90;;;;;;4955243;28;20027;-83
2023/07/10 05:21:08;;;;;;;13.55;3.47;;;12.00;99.90;;;;;;4972283;28;20071;-83
2023/07/10 05:23:35;;;;;;;9.70;4.18;;;12.00;99.90;;;;;;4972007;28;20486;-82
2023/07/10 05:26:13;;;;;;;16.58;4.28;;;12.20;99.90;;;;;;4972195;28;20027;-82
2023/07/10 05:28:40;;;;;;;13.25;3.72;;;12.30;99.90;;;;;;4970463;28;20444;-82
2023/07/10 05:31:07;;;;;;;18.20;4.68;;;12.40;99.90;;;;;;4954391;28;20042;-83
2023/07/10 05:33:34;;;;;;;14.65;4.47;;;12.60;99.90;;;;;;4971865;28;20027;-84
2023/07/10 05:36:02;;;;;;;17.27;4.40;;;12.80;99.90;;;;;;4972159;28;20118;-83
2023/07/10 05:38:30;;;;;;;19.17;4.80;;;12.90;99.90;;;;;;4971993;28;20101;-83
2023/07/10 05:40:55;;;;;;;10.27;3.83;;;13.00;99.90;;;;;;4972134;28;20039;-83
2023/07/10 05:43:22;;;;;;;13.85;4.25;;;13.10;99.90;;;;;;4971721;28;20077;-83
2023/07/10 05:45:49;;;;;;;15.40;4.32;;;13.20;99.90;;;;;;4972054;28;20523;-83
2023/07/10 05:48:15;;;;;;;17.67;4.93;;;13.30;99.90;;;;;;4971847;28;20025;-83
2023/07/10 05:50:44;;;;;;;16.90;5.88;;;13.60;99.90;;;;;;4972055;28;20382;-82
2023/07/10 05:53:09;;;;;;;22.08;6.57;;;13.70;99.90;;;;;;4971432;28;20046;-83
2023/07/10 05:55:35;;;;;;;27.52;6.68;;;13.80;99.90;;;;;;4971677;28;20047;-83
2023/07/10 05:58:01;;;;;;;17.30;5.80;;;14.00;99.90;;;;;;4971348;28;20035;-84
2023/07/10 06:00:26;;;;;;;19.67;5.25;;;14.20;99.90;;;;;;4972144;28;20739;-83
2023/07/10 06:02:52;;;;;;;16.70;5.55;;;14.40;99.90;;;;;;4953297;28;20506;-83
2023/07/10 06:05:18;;;;;;;29.88;6.40;;;14.50;99.90;;;;;;4971202;28;20093;-83
2023/07/10 06:07:44;;;;;;;18.23;6.72;;;14.60;99.90;;;;;;4971080;28;20479;-84
2023/07/10 06:10:10;;;;;;;34.67;8.02;;;14.70;99.90;;;;;;4971007;28;20035;-83
2023/07/10 06:12:36;;;;;;;16.63;5.32;;;15.00;99.90;;;;;;4972412;28;20033;-83
2023/07/10 06:15:01;;;;;;;13.50;5.07;;;15.20;99.90;;;;;;4978928;28;20027;-85
2023/07/10 06:17:27;;;;;;;14.80;4.32;;;15.30;99.90;;;;;;4977463;28;20109;-85
2023/07/10 06:19:53;;;;;;;13.70;3.53;;;15.50;99.90;;;;;;4971983;28;20023;-84
2023/07/10 06:22:18;;;;;;;9.05;3.30;;;15.60;99.90;;;;;;4971673;28;20027;-84
2023/07/10 06:24:45;;;;;;;14.55;3.50;;;15.80;99.90;;;;;;4971611;28;20034;-84
2023/07/10 06:27:10;;;;;;;13.75;2.83;;;16.00;99.90;;;;;;4984738;23;20051;-80
2023/07/10 06:29:37;;;;;;;9.57;3.05;;;16.20;99.90;;;;;;4971343;28;20042;-82
2023/07/10 06:32:03;;;;;;;9.65;3.22;;;16.60;99.90;;;;;;4976288;28;20030;-82
2023/07/10 06:34:29;;;;;;;9.30;2.42;;;16.80;99.90;;;;;;4976633;28;20422;-82
2023/07/10 06:36:55;;;;;;;7.75;2.10;;;17.10;99.90;;;;;;4977768;28;20018;-82
2023/07/10 06:39:21;;;;;;;5.05;1.65;;;17.30;98.70;;;;;;4980080;28;20018;-82
2023/07/10 06:41:47;;;;;;;10.88;2.80;;;17.40;97.60;;;;;;4972971;28;20041;-82
2023/07/10 06:44:14;;;;;;;10.02;1.70;;;17.50;97.40;;;;;;4970986;28;20027;-81
2023/07/10 06:46:40;;;;;;;7.15;1.92;;;17.50;95.20;;;;;;4971267;28;20022;-82
2023/07/10 06:49:05;;;;;;;8.95;1.70;;;17.70;93.30;;;;;;4971008;28;20030;-80
2023/07/10 06:51:31;;;;;;;7.57;1.50;;;17.60;93.30;;;;;;4971101;28;20119;-82
2023/07/10 06:53:57;;;;;;;6.68;1.52;;;17.60;93.10;;;;;;4953937;28;20026;-81
2023/07/10 06:56:22;;;;;;;9.52;1.70;;;17.70;92.70;;;;;;4970215;28;20019;-81
2023/07/10 06:58:48;;;;;;;22.33;1.70;;;17.70;94.00;;;;;;4973091;28;20345;-81
2023/07/10 07:01:13;;;;;;;8.15;1.55;;;17.70;92.60;;;;;;4971020;28;20026;-81
2023/07/10 07:03:40;;;;;;;5.80;1.40;;;17.70;91.70;;;;;;4970856;28;20653;-81
2023/07/10 07:06:07;;;;;;;8.20;1.55;;;17.70;91.10;;;;;;4970442;28;20383;-81
2023/07/10 07:08:33;;;;;;;5.30;1.38;;;17.70;91.30;;;;;;4953517;28;20483;-81
2023/07/10 07:10:59;;;;;;;5.82;1.33;;;17.70;91.50;;;;;;4970669;28;20039;-82
2023/07/10 07:13:25;;;;;;;4.30;1.25;;;17.80;90.20;;;;;;4972201;28;20015;-82
2023/07/10 07:15:52;;;;;;;8.55;1.38;;;17.80;91.00;;;;;;4974614;28;20027;-81
2023/07/10 07:18:18;;;;;;;3.55;1.10;;;17.90;91.20;;;;;;4974362;28;20026;-80
2023/07/10 07:20:44;;;;;;;4.55;1.00;;;18.10;91.40;;;;;;4974443;28;20023;-80
2023/07/10 07:23:09;;;;;;;4.28;1.30;;;18.30;90.10;;;;;;4957417;28;20122;-81
2023/07/10 07:25:35;;;;;;;7.40;1.83;;;18.40;89.30;;;;;;4973998;28;20026;-81
2023/07/10 07:28:03;;;;;;;4.15;1.25;;;18.60;85.00;;;;;;4997765;23;20058;-83
2023/07/10 07:30:29;;;;;;;6.68;1.08;;;18.80;86.90;;;;;;4993061;28;20555;-81
2023/07/10 07:32:56;;;;;;;5.47;1.45;;;18.90;83.90;;;;;;4992035;28;20019;-82
2023/07/10 07:35:22;;;;;;;4.35;1.17;;;18.90;84.70;;;;;;4989813;28;20761;-84
2023/07/10 07:37:47;;;;;;;7.78;1.38;;;18.90;85.00;;;;;;4990966;28;20116;-81
2023/07/10 07:40:16;;;;;;;4.80;1.60;;;18.90;82.50;;;;;;4984526;28;20534;-81
2023/07/10 07:42:43;;;;;;;7.18;1.30;;;19.00;82.70;;;;;;4991374;28;20366;-84
2023/07/10 07:45:09;;;;;;;14.85;1.40;;;19.10;81.20;;;;;;4991326;28;20015;-83
2023/07/10 07:47:35;;;;;;;5.32;1.45;;;19.40;83.20;;;;;;4992287;28;20029;-84
2023/07/10 07:50:00;;;;;;;4.75;1.30;;;19.50;82.60;;;;;;4992904;28;20034;-84
2023/07/10 07:52:26;;;;;;;9.15;1.55;;;19.60;78.30;;;;;;4993933;28;20027;-83
2023/07/10 07:54:51;;;;;;;6.57;1.17;;;19.70;77.20;;;;;;4993828;28;20018;-84
2023/07/10 07:57:17;;;;;;;8.27;1.85;;;19.90;79.80;;;;;;4993170;28;20017;-83
2023/07/10 07:59:43;;;;;;;5.05;1.25;;;20.00;76.30;;;;;;4993512;28;20026;-84
2023/07/10 08:02:09;;;;;;;5.03;1.38;;;20.20;79.70;;;;;;4993394;28;20022;-84
2023/07/10 08:04:36;;;;;;;4.80;1.17;;;20.40;77.20;;;;;;4993965;28;20027;-84
2023/07/10 08:07:01;;;;;;;5.85;1.02;;;20.70;76.20;;;;;;4993263;28;20022;-84
2023/07/10 08:09:27;;;;;;;6.85;1.45;;;21.10;74.30;;;;;;4993660;28;20030;-84
2023/07/10 08:11:52;;;;;;;6.47;1.00;;;21.40;68.90;;;;;;4976042;28;20474;-83
2023/07/10 08:14:18;;;;;;;5.75;1.58;;;21.60;68.70;;;;;;4993239;28;20486;-84
2023/07/10 08:16:44;;;;;;;5.85;1.17;;;21.90;70.00;;;;;;4993397;28;20677;-84
2023/07/10 08:19:09;;;;;;;6.38;1.40;;;21.60;68.50;;;;;;4993356;28;20014;-83
2023/07/10 08:21:35;;;;;;;2.50;0.90;;;21.80;68.70;;;;;;4992865;28;20027;-84
2023/07/10 08:24:00;;;;;;;5.45;1.08;;;21.70;66.80;;;;;;4992861;28;20018;-81
2023/07/10 08:28:53;;;;;;;7.35;1.50;;;21.40;64.90;;;;;;4972486;28;20063;-80
2023/07/10 08:31:19;;;;;;;6.10;1.20;;;21.30;67.20;;;;;;4973780;28;20062;-81
2023/07/10 08:33:45;;;;;;;5.18;1.17;;;21.30;67.60;;;;;;4973541;28;20117;-81
2023/07/10 08:36:10;;;;;;;6.93;1.88;;;21.30;66.80;;;;;;4973406;28;20062;-80
2023/07/10 08:38:38;;;;;;;7.13;1.08;;;21.30;65.20;;;;;;4973396;28;20027;-81
2023/07/10 08:41:20;;;;;;;5.70;1.00;;;21.50;67.50;;;;;;4973579;28;20027;-80
2023/07/10 08:43:47;;;;;;;10.40;1.63;;;21.60;66.70;;;;;;4973487;28;20459;-81
2023/07/10 08:46:21;;;;;;;7.88;2.45;;;21.90;68.10;;;;;;4972970;28;20521;-81
2023/07/10 08:48:59;;;;;;;4.28;1.23;;;22.30;63.60;;;;;;4972933;28;20474;-81
2023/07/10 08:51:38;;;;;;;9.23;1.35;;;22.90;62.90;;;;;;4973277;28;20035;-82
2023/07/10 08:54:11;;;;;;;6.50;1.17;;;23.80;59.70;;;;;;4973452;28;20027;-79
2023/07/10 08:56:52;;;;;;;5.60;1.15;;;24.70;56.90;;;;;;4966778;28;20053;-79
2023/07/10 08:59:27;;;;;;;4.30;1.08;;;25.30;55.60;;;;;;4962950;28;20027;-80
2023/07/10 09:01:55;;;;;;;8.68;1.27;;;25.80;51.90;;;;;;4972974;28;20106;-80
2023/07/10 09:04:21;;;;;;;4.32;0.88;;;26.40;52.40;;;;;;4972880;28;20110;-80
2023/07/10 09:06:56;;;;;;;4.85;1.35;;;27.00;50.80;;;;;;4972926;28;20066;-81
2023/07/10 09:09:31;;;;;;;3.97;0.85;;;27.10;49.00;;;;;;4967144;28;20471;-80
2023/07/10 09:12:00;;;;;;;5.80;1.10;;;27.50;49.20;;;;;;4972650;28;20027;-80
2023/07/10 09:14:47;;;;;;;6.68;1.55;;;27.90;47.60;;;;;;4972704;28;20392;-79
2023/07/10 09:17:35;;;;;;;6.93;1.55;;;28.40;47.40;;;;;;4972265;28;20019;-81
2023/07/10 09:20:06;;;;;;;9.73;1.23;;;28.20;47.00;;;;;;4972393;28;20423;-81
2023/07/10 09:22:37;;;;;;;5.00;1.20;;;28.50;46.40;;;;;;4955405;28;20035;-80
2023/07/10 09:25:10;;;;;;;;;;;28.90;47.50;;;;;;4972922;28;20023;-79
2023/07/10 09:27:36;;;;;;;4.45;1.10;;;28.90;45.20;;;;;;4972261;28;20404;-78
2023/07/10 09:30:01;;;;;;;4.47;0.93;;;28.40;47.90;;;;;;4972309;28;20034;-79
2023/07/10 09:32:34;;;;;;;5.63;1.33;;;28.20;46.80;;;;;;4955611;28;20510;-80
2023/07/10 09:35:00;;;;;;;7.25;1.20;;;27.90;48.10;;;;;;4955129;28;20022;-80
2023/07/10 09:37:36;;;;;;;5.90;1.23;;;28.10;49.20;;;;;;4955257;28;20348;-80
2023/07/10 09:40:18;;;;;;;9.75;1.75;;;28.00;47.90;;;;;;4972342;28;20047;-80
2023/07/10 09:42:44;;;;;;;7.68;1.30;;;28.20;48.60;;;;;;4972045;28;20027;-80
2023/07/10 09:45:14;;;;;;;5.00;1.27;;;28.10;47.70;;;;;;4972010;28;20364;-80
2023/07/10 09:47:44;;;;;;;6.83;1.63;;;27.70;49.40;;;;;;4972059;28;20022;-79
2023/07/10 09:50:15;;;;;;;3.95;1.35;;;28.10;49.20;;;;;;4965954;28;20296;-79
2023/07/10 09:52:41;;;;;;;;;;;27.90;44.90;;;;;;4972292;28;20467;-79
2023/07/10 09:55:16;;;;;;;6.38;0.98;;;27.70;47.80;;;;;;4972061;28;19912;-79
2023/07/10 09:57:55;;;;;;;4.20;0.95;;;27.70;47.30;;;;;;4984328;23;20088;-82
2023/07/10 10:00:22;;;;;;;3.33;1.40;;;27.70;46.90;;;;;;4967245;28;20027;-83
2023/07/10 10:03:13;;;;;;;5.25;1.17;;;27.40;45.00;;;;;;4971799;28;20026;-82
2023/07/10 10:05:42;;;;;;;4.15;1.02;;;28.10;46.70;;;;;;4965671;28;20038;-82
2023/07/10 10:08:32;;;;;;;4.50;0.93;;;28.30;42.80;;;;;;4971363;28;20074;-82
2023/07/10 10:11:10;;;;;;;5.28;1.15;;;28.10;44.90;;;;;;4947307;28;20407;-83
2023/07/10 10:13:41;;;;;;;5.22;1.30;;;28.60;41.90;;;;;;4971376;28;20049;-83
2023/07/10 10:16:17;;;;;;;4.45;1.13;;;28.60;41.10;;;;;;4972064;28;20459;-83
2023/07/10 10:18:50;;;;;;;9.10;1.40;;;29.30;42.20;;;;;;4974983;28;20379;-83
2023/07/10 10:21:19;;;;;;;4.90;1.20;;;29.40;41.70;;;;;;4954475;28;20125;-82
2023/07/10 10:23:49;;;;;;;4.03;1.10;;;29.80;42.20;;;;;;4965197;28;20119;-82
2023/07/10 10:26:43;;;;;;;12.13;1.23;;;30.40;40.40;;;;;;4971713;28;20494;-82
2023/07/10 10:29:14;;;;;;;5.05;1.50;;;30.80;40.90;;;;;;4956461;28;20098;-82
2023/07/10 10:31:53;;;;;;;4.93;1.65;;;30.90;40.20;;;;;;4971531;28;20035;-82
2023/07/10 10:34:51;;;;;;;5.80;1.25;;;31.30;42.00;;;;;;4971473;28;20031;-82
2023/07/10 10:37:42;;;;;;;5.93;1.60;;;31.70;39.20;;;;;;4953768;28;20027;-83
2023/07/10 10:40:30;;;;;;;7.43;1.63;;;31.60;41.90;;;;;;4967014;28;20042;-81
2023/07/10 10:43:14;;;;;;;4.88;1.15;;;31.20;41.90;;;;;;4965264;28;20054;-83
2023/07/10 10:45:50;;;;;;;3.95;1.23;;;31.70;41.90;;;;;;4965413;28;20023;-84
2023/07/10 10:48:22;;;;;;;4.95;1.30;;;31.90;39.70;;;;;;4970635;28;20011;-82
2023/07/10 10:50:51;;;;;;;8.45;1.52;;;31.80;41.70;;;;;;4953785;28;20062;-84
2023/07/10 10:53:54;;;;;;;6.50;1.23;;;32.50;40.70;;;;;;4971171;28;20026;-85
2023/07/10 10:59:47;;;;;;;7.18;1.48;;;32.60;40.60;;;;;;4969469;28;20058;-85
2023/07/10 11:02:38;;;;;;;6.55;1.73;;;32.50;40.40;;;;;;4941488;28;20030;-83
2023/07/10 11:05:10;;;;;;;7.45;1.48;;;32.30;40.50;;;;;;4971894;28;20019;-82
2023/07/10 11:07:39;;;;;;;4.88;1.52;;;32.20;41.60;;;;;;4971462;28;20094;-84
2023/07/10 11:10:14;;;;;;;6.50;1.52;;;32.90;41.00;;;;;;4978059;28;20066;-84
2023/07/10 11:12:40;;;;;;;6.03;1.52;;;34.20;40.90;;;;;;4954177;28;20018;-83
2023/07/10 11:15:21;;;;;;;6.13;1.67;;;34.60;38.50;;;;;;4971646;28;20022;-83
2023/07/10 11:17:50;;;;;;;4.63;1.50;;;34.80;39.80;;;;;;4971612;28;20493;-84
2023/07/10 11:20:18;;;;;;;7.40;1.50;;;35.40;37.90;;;;;;4971662;28;20030;-83
2023/07/10 11:22:55;;;;;;;8.07;1.90;;;35.10;36.30;;;;;;4971488;28;20502;-82
2023/07/10 11:25:38;;;;;;;5.65;2.05;;;33.90;37.70;;;;;;4971259;28;20273;-81
2023/07/10 11:28:28;;;;;;;7.03;1.77;;;33.10;38.70;;;;;;4971245;28;20039;-82
2023/07/10 11:31:18;;;;;;;5.03;1.42;;;33.10;39.70;;;;;;4960069;28;20118;-82
2023/07/10 11:33:52;;;;;;;10.77;1.90;;;33.20;39.50;;;;;;4947028;28;20023;-82
2023/07/10 11:36:18;;;;;;;6.68;1.50;;;33.40;40.40;;;;;;4971263;28;20052;-83
2023/07/10 11:39:05;;;;;;;11.10;2.22;;;33.90;38.50;;;;;;4971506;28;20098;-84
2023/07/10 11:41:43;;;;;;;8.40;1.83;;;34.30;36.00;;;;;;4954167;28;20426;-83
2023/07/10 11:44:27;;;;;;;4.35;1.52;;;34.20;37.20;;;;;;4971430;28;20175;-83
2023/07/10 11:47:05;;;;;;;7.85;1.80;;;34.20;37.30;;;;;;4971278;28;20050;-83
2023/07/10 11:49:51;;;;;;;6.53;1.35;;;34.10;38.10;;;;;;4970686;28;20383;-83
2023/07/10 11:52:17;;;;;;;5.38;1.40;;;34.80;37.50;;;;;;4971031;28;20045;-81
2023/07/10 11:55:00;;;;;;;4.28;1.30;;;34.80;36.30;;;;;;4970976;28;20459;-84
2023/07/10 11:57:34;;;;;;;7.45;2.03;;;34.90;36.90;;;;;;4982066;23;20061;-84
2023/07/10 12:00:12;;;;;;;6.50;1.75;;;34.40;35.60;;;;;;4991405;28;20022;-82
2023/07/10 12:02:52;;;;;;;4.82;1.45;;;35.30;35.80;;;;;;4993528;28;20022;-83
2023/07/10 12:05:23;;;;;;;4.60;1.65;;;35.30;35.10;;;;;;4976304;28;20022;-83
2023/07/10 12:07:58;;;;;;;5.53;1.73;;;35.50;36.40;;;;;;4956573;28;20023;-82
2023/07/10 12:10:26;;;;;;;3.90;1.20;;;36.10;35.70;;;;;;4974026;28;20031;-82
2023/07/10 12:12:52;;;;;;;5.13;1.58;;;36.10;37.20;;;;;;4973836;28;20607;-83
2023/07/10 12:15:18;;;;;;;6.40;2.13;;;36.20;37.00;;;;;;4956487;28;20113;-83
2023/07/10 12:17:45;;;;;;;4.63;1.77;;;36.30;34.50;;;;;;4973543;28;20102;-83
2023/07/10 12:20:27;;;;;;;5.90;1.55;;;36.40;36.40;;;;;;4973820;28;20546;-83
2023/07/10 12:22:55;;;;;;;6.68;1.63;;;36.00;36.00;;;;;;4967593;28;20081;-84
2023/07/10 12:25:21;;;;;;;5.25;1.50;;;36.70;36.00;;;;;;4973184;28;20483;-84
2023/07/10 12:27:47;;;;;;;4.38;1.40;;;36.80;35.30;;;;;;4973440;28;20467;-83
2023/07/10 12:30:20;;;;;;;13.52;2.72;;;36.00;34.20;;;;;;4956599;28;20038;-84
2023/07/10 12:32:47;;;;;;;4.78;1.85;;;35.80;34.70;;;;;;4973530;28;20419;-84
2023/07/10 12:35:16;;;;;;;4.63;1.55;;;35.80;35.70;;;;;;4973039;28;20030;-84
2023/07/10 12:37:46;;;;;;;6.07;1.70;;;35.00;36.90;;;;;;4973520;28;20011;-82
2023/07/10 12:40:16;;;;;;;6.75;1.85;;;34.80;38.50;;;;;;4973708;28;20073;-82
2023/07/10 12:42:44;;;;;;;8.20;2.00;;;35.20;37.10;;;;;;4972724;28;20068;-85
2023/07/10 12:45:26;;;;;;;8.07;1.52;;;35.20;37.20;;;;;;4972783;28;20030;-83
2023/07/10 12:48:15;;;;;;;4.72;1.27;;;35.20;36.40;;;;;;4972894;28;20378;-83
2023/07/10 12:50:44;;;;;;;4.72;1.27;;;34.80;37.00;;;;;;4972711;28;20467;-83
2023/07/10 12:53:22;;;;;;;5.85;1.38;;;35.20;36.90;;;;;;4973349;28;20015;-80
2023/07/10 12:55:54;;;;;;;6.30;1.10;;;34.10;37.20;;;;;;4973225;28;20027;-84
2023/07/10 12:58:21;;;;;;;5.10;1.70;;;33.40;38.90;;;;;;4979044;23;20046;-81
2023/07/10 13:00:47;;;;;;;8.93;1.83;;;33.40;39.20;;;;;;4972720;28;20093;-81